createdAt,value
2022-11-30T00:01:48.452Z,101636.47
2022-11-30T00:06:56.998Z,101625.78
2022-11-30T00:12:00.236Z,101635.50
2022-11-30T00:17:05.016Z,101628.69
2022-11-30T00:22:08.422Z,101637.69
2022-11-30T00:27:11.701Z,101640.91
2022-11-30T00:32:16.379Z,101635.09
2022-11-30T00:37:19.796Z,101630.31
2022-11-30T00:42:23.220Z,101632.94
2022-11-30T00:47:27.959Z,101630.97
2022-11-30T00:52:31.682Z,101634.72
2022-11-30T00:57:34.977Z,101626.28
2022-11-30T01:02:39.704Z,101622.50
2022-11-30T01:07:43.096Z,101625.19
2022-11-30T01:12:46.532Z,101618.31
2022-11-30T01:17:51.361Z,101617.75
2022-11-30T01:22:55.997Z,101619.75
2022-11-30T01:27:59.235Z,101620.47
2022-11-30T01:33:05.873Z,101615.78
2022-11-30T01:38:09.125Z,101604.31
2022-11-30T01:43:13.356Z,101610.72
2022-11-30T01:48:18.062Z,101569.09
2022-11-30T01:53:21.406Z,101606.25
2022-11-30T01:58:28.639Z,101605.34
2022-11-30T02:03:41.133Z,101605.88
2022-11-30T02:08:44.794Z,101611.69
2022-11-30T02:14:00.016Z,101606.88
2022-11-30T02:19:19.179Z,101597.56
2022-11-30T02:24:38.299Z,101597.41
2022-11-30T02:29:45.243Z,101595.00
2022-11-30T02:34:50.713Z,101584.41
2022-11-30T02:39:53.857Z,101596.28
2022-11-30T02:44:58.580Z,101597.41
2022-11-30T02:50:06.030Z,101595.59
2022-11-30T02:55:11.614Z,101569.09
2022-11-30T03:00:18.687Z,101587.19
2022-11-30T03:05:22.040Z,101586.69
2022-11-30T03:10:25.647Z,101581.06
2022-11-30T03:15:30.260Z,101581.25
2022-11-30T03:20:34.018Z,101577.34
2022-11-30T03:25:37.336Z,101578.84
2022-11-30T03:30:42.096Z,101590.09
2022-11-30T03:35:45.613Z,101591.97
2022-11-30T03:40:49.029Z,101596.59
2022-11-30T03:45:53.578Z,101598.19
2022-11-30T03:50:57.020Z,101586.53
2022-11-30T03:56:02.234Z,101597.97
2022-11-30T04:01:09.649Z,101600.28
2022-11-30T04:06:13.992Z,101596.50
2022-11-30T04:11:17.068Z,101596.50
2022-11-30T04:16:21.859Z,101592.09
2022-11-30T04:21:25.267Z,101588.13
2022-11-30T04:26:28.549Z,101592.44
2022-11-30T04:31:33.275Z,101588.81
2022-11-30T04:36:36.786Z,101593.91
2022-11-30T04:41:41.074Z,101602.53
2022-11-30T04:46:45.742Z,101603.09
2022-11-30T04:51:49.075Z,101601.13
2022-11-30T04:56:52.360Z,101599.53
2022-11-30T05:01:57.428Z,101601.88
2022-11-30T05:07:00.843Z,101607.09
2022-11-30T05:12:04.255Z,101600.66
2022-11-30T05:17:08.961Z,101599.38
2022-11-30T05:22:12.302Z,101598.28
2022-11-30T05:27:22.200Z,101598.63
2022-11-30T05:32:27.206Z,101600.81
2022-11-30T05:37:30.669Z,101604.97
2022-11-30T05:42:34.111Z,101602.22
2022-11-30T05:47:38.959Z,101603.81
2022-11-30T05:52:42.284Z,101607.31
2022-11-30T05:57:45.492Z,101615.03
2022-11-30T06:02:50.247Z,101618.06
2022-11-30T06:07:53.521Z,101616.94
2022-11-30T06:12:57.107Z,101621.00
2022-11-30T06:18:01.747Z,101621.19
2022-11-30T06:23:05.162Z,101637.34
2022-11-30T06:28:10.730Z,101632.19
2022-11-30T06:33:15.476Z,101647.63
2022-11-30T06:38:18.846Z,101636.09
2022-11-30T06:43:22.130Z,101636.22
2022-11-30T06:48:26.692Z,101639.28
2022-11-30T06:53:29.740Z,101633.19
2022-11-30T06:58:32.949Z,101624.75
2022-11-30T07:03:37.665Z,101624.75
2022-11-30T07:08:41.927Z,101623.28
2022-11-30T07:13:45.844Z,101622.00
2022-11-30T07:18:50.501Z,101623.88
2022-11-30T07:24:12.714Z,101637.56
2022-11-30T07:29:16.023Z,101633.88
2022-11-30T07:34:21.050Z,101628.13
2022-11-30T07:39:24.874Z,101639.19
2022-11-30T07:44:28.230Z,101632.72
2022-11-30T07:49:32.847Z,101608.69
2022-11-30T07:54:36.257Z,101629.88
2022-11-30T07:59:39.641Z,101626.97
2022-11-30T08:04:44.568Z,101625.88
2022-11-30T08:09:49.188Z,101622.13
2022-11-30T08:15:18.657Z,101629.34
2022-11-30T08:20:17.234Z,101620.25
2022-11-30T08:25:20.517Z,101626.03
2022-11-30T08:30:27.861Z,101616.50
2022-11-30T08:35:35.668Z,101618.66
2022-11-30T08:40:39.009Z,101616.59
2022-11-30T08:45:42.431Z,101620.97
2022-11-30T08:50:47.049Z,101626.84
2022-11-30T08:55:58.015Z,101620.34
2022-11-30T09:01:07.838Z,101621.78
2022-11-30T09:06:14.008Z,101624.31
2022-11-30T09:11:19.348Z,101619.78
2022-11-30T09:16:23.480Z,101607.25
2022-11-30T09:21:28.162Z,101615.41
2022-11-30T09:26:31.412Z,101618.28
2022-11-30T09:31:34.673Z,101619.97
2022-11-30T09:36:39.448Z,101620.84
2022-11-30T09:42:14.641Z,101624.78
2022-11-30T09:47:33.097Z,101616.81
2022-11-30T09:52:41.332Z,101610.94
2022-11-30T09:57:47.967Z,101618.47
2022-11-30T10:02:53.209Z,101611.91
2022-11-30T10:08:19.186Z,101615.13
2022-11-30T10:13:36.078Z,101616.31
2022-11-30T10:18:51.768Z,101610.72
2022-11-30T10:24:22.176Z,101612.09
2022-11-30T10:29:32.300Z,101607.78
2022-11-30T10:34:37.637Z,101613.09
2022-11-30T10:39:54.100Z,101614.34
2022-11-30T10:45:02.421Z,101618.41
2022-11-30T10:50:08.852Z,101606.28
2022-11-30T10:55:20.040Z,101609.41
2022-11-30T11:00:23.898Z,101606.13
2022-11-30T11:05:29.418Z,101599.09
2022-11-30T11:10:37.141Z,101592.31
2022-11-30T11:15:40.728Z,101589.09
2022-11-30T11:20:43.917Z,101594.94
2022-11-30T11:25:53.461Z,101603.88
2022-11-30T11:30:58.718Z,101599.28
2022-11-30T11:36:15.724Z,101598.97
2022-11-30T11:41:25.497Z,101598.56
2022-11-30T11:46:30.223Z,101602.19
2022-11-30T11:51:35.801Z,101601.63
2022-11-30T11:56:42.477Z,101601.00
2022-11-30T12:01:54.352Z,101594.47
2022-11-30T12:07:01.429Z,101594.63
2022-11-30T12:12:06.955Z,101598.94
2022-11-30T12:17:40.328Z,101602.66
2022-11-30T12:23:06.707Z,101611.00
2022-11-30T12:28:23.100Z,101605.19
2022-11-30T12:33:41.512Z,101597.00
2022-11-30T12:38:50.490Z,101605.81
2022-11-30T12:44:04.340Z,101602.66
2022-11-30T12:49:21.255Z,101596.13
2022-11-30T12:54:32.103Z,101611.47
2022-11-30T12:59:45.148Z,101614.28
2022-11-30T13:04:58.051Z,101609.72
2022-11-30T13:10:07.522Z,101615.78
2022-11-30T13:15:19.082Z,101612.34
2022-11-30T13:20:30.101Z,101615.59
2022-11-30T13:31:10.158Z,101605.88
2022-11-30T13:36:25.787Z,101611.38
2022-11-30T13:41:29.487Z,101605.38
2022-11-30T13:46:34.208Z,101608.66
2022-11-30T13:51:39.786Z,101607.94
2022-11-30T13:56:48.467Z,101604.50
2022-11-30T14:07:35.988Z,101599.44
2022-11-30T14:13:01.621Z,101603.81
2022-11-30T14:18:17.628Z,101608.34
2022-11-30T14:23:23.851Z,101608.38
2022-11-30T14:28:44.382Z,101605.16
2022-11-30T14:33:54.602Z,101616.47
2022-11-30T14:38:58.059Z,101604.75
2022-11-30T14:44:08.031Z,101589.03
2022-11-30T14:49:18.296Z,101592.28
2022-11-30T14:54:39.103Z,101596.38
2022-11-30T14:59:48.834Z,101609.34
2022-11-30T15:04:55.744Z,101597.25
2022-11-30T15:10:05.732Z,101601.84
2022-11-30T15:15:17.091Z,101595.91
2022-11-30T15:20:27.907Z,101600.66
2022-11-30T15:25:38.757Z,101603.25
2022-11-30T15:30:44.552Z,101597.06
2022-11-30T15:41:20.558Z,101603.66
2022-11-30T15:46:32.988Z,101607.31
2022-11-30T15:51:42.561Z,101608.28
2022-11-30T15:56:57.794Z,101600.38
2022-11-30T16:02:08.909Z,101601.53
2022-11-30T16:07:19.197Z,101604.78
2022-11-30T16:12:29.624Z,101607.69
2022-11-30T16:17:34.514Z,101592.84
2022-11-30T16:22:42.379Z,101598.47
2022-11-30T16:27:47.982Z,101600.06
2022-11-30T16:32:51.995Z,101602.75
2022-11-30T16:37:56.890Z,101604.78
2022-11-30T16:43:00.495Z,101606.44
2022-11-30T16:48:04.879Z,101605.38
2022-11-30T16:53:11.739Z,101598.59
2022-11-30T16:58:15.246Z,101591.59
2022-11-30T17:03:24.180Z,101597.13
2022-11-30T17:08:29.178Z,101600.06
2022-11-30T17:13:34.440Z,101591.31
2022-11-30T17:18:38.220Z,101603.38
2022-11-30T17:23:43.335Z,101600.34
2022-11-30T17:28:49.746Z,101598.16
2022-11-30T17:33:53.111Z,101607.91
2022-11-30T17:38:58.129Z,101610.44
2022-11-30T17:44:03.229Z,101611.56
2022-11-30T17:49:07.458Z,101612.19
2022-11-30T17:54:13.302Z,101608.53
2022-11-30T17:59:17.109Z,101599.34
2022-11-30T18:04:20.608Z,101605.34
2022-11-30T18:09:25.548Z,101597.56
2022-11-30T18:14:28.977Z,101601.38
2022-11-30T18:19:32.348Z,101595.75
2022-11-30T18:24:37.135Z,101616.88
2022-11-30T18:29:40.613Z,101617.09
2022-11-30T18:34:49.369Z,101616.44
2022-11-30T18:39:54.462Z,101621.34
2022-11-30T18:44:57.802Z,101619.97
2022-11-30T18:50:01.340Z,101627.72
2022-11-30T18:55:06.884Z,101639.31
2022-11-30T19:00:11.538Z,101625.00
2022-11-30T19:05:31.713Z,101635.22
2022-11-30T19:10:37.589Z,101631.66
2022-11-30T19:15:42.271Z,101626.66
2022-11-30T19:20:46.716Z,101636.19
2022-11-30T19:25:51.415Z,101652.53
2022-11-30T19:30:54.859Z,101652.56
2022-11-30T19:36:03.204Z,101650.03
2022-11-30T19:41:09.273Z,101654.75
2022-11-30T19:46:14.524Z,101659.97
2022-11-30T19:51:18.910Z,101664.47
2022-11-30T19:56:25.001Z,101666.50
2022-11-30T20:01:29.090Z,101675.88
2022-11-30T20:06:36.360Z,101679.66
2022-11-30T20:11:41.375Z,101680.91
2022-11-30T20:16:44.946Z,101679.69
2022-11-30T20:21:48.928Z,101686.53
2022-11-30T20:26:53.757Z,101663.75
2022-11-30T20:31:57.384Z,101679.72
2022-11-30T20:37:00.722Z,101682.81
2022-11-30T20:42:05.592Z,101683.69
2022-11-30T20:47:09.214Z,101684.25
2022-11-30T20:52:12.566Z,101684.44
2022-11-30T20:57:17.194Z,101697.72
2022-11-30T21:02:20.572Z,101689.81
2022-11-30T21:07:24.148Z,101691.06
2022-11-30T21:12:28.787Z,101692.16
2022-11-30T21:17:32.101Z,101690.88
2022-11-30T21:22:35.446Z,101684.44
2022-11-30T21:27:40.116Z,101687.13
2022-11-30T21:32:43.520Z,101689.63
2022-11-30T21:37:46.974Z,101690.72
2022-11-30T21:42:51.703Z,101696.81
2022-11-30T21:47:55.107Z,101694.09
2022-11-30T21:52:58.451Z,101690.84
2022-11-30T21:58:03.155Z,101704.66
2022-11-30T22:03:06.619Z,101699.28
2022-11-30T22:08:09.991Z,101686.53
2022-11-30T22:13:14.605Z,101690.31
2022-11-30T22:18:18.075Z,101694.63
2022-11-30T22:23:21.853Z,101688.88
2022-11-30T22:28:26.636Z,101686.19
2022-11-30T22:33:29.995Z,101695.50
2022-11-30T22:38:33.649Z,101694.97
2022-11-30T22:43:38.557Z,101694.94
2022-11-30T22:48:42.664Z,101691.69
2022-11-30T22:53:47.666Z,101693.31
2022-11-30T22:58:54.461Z,101697.81
2022-11-30T23:04:02.321Z,101699.03
2022-11-30T23:09:07.123Z,101694.72
2022-11-30T23:14:12.369Z,101692.19
2022-11-30T23:19:16.136Z,101695.78
2022-11-30T23:24:21.606Z,101690.06
2022-11-30T23:29:26.516Z,101694.16
2022-11-30T23:34:29.992Z,101697.94
2022-11-30T23:39:33.355Z,101695.94
2022-11-30T23:44:38.131Z,101696.81
2022-11-30T23:49:41.464Z,101698.97
2022-11-30T23:54:44.821Z,101695.91
2022-11-30T23:59:49.714Z,101702.56
